createdAt,value
2023-05-06T00:01:22.066Z,3.03
2023-05-06T00:03:49.818Z,3.58
2023-05-06T00:06:18.974Z,3.70
2023-05-06T00:08:46.960Z,4.70
2023-05-06T00:11:14.607Z,3.63
2023-05-06T00:13:42.205Z,3.60
2023-05-06T00:16:09.786Z,3.40
2023-05-06T00:18:37.343Z,3.53
2023-05-06T00:21:05.182Z,2.92
2023-05-06T00:23:34.103Z,3.28
2023-05-06T00:26:01.718Z,3.42
2023-05-06T00:28:29.224Z,3.10
2023-05-06T00:30:56.789Z,3.40
2023-05-06T00:33:24.345Z,3.22
2023-05-06T00:35:53.239Z,3.80
2023-05-06T00:38:20.820Z,3.58
2023-05-06T00:40:49.986Z,3.38
2023-05-06T00:43:17.591Z,3.58
2023-05-06T00:45:45.524Z,3.35
2023-05-06T00:48:13.341Z,3.22
2023-05-06T00:50:41.643Z,3.38
2023-05-06T00:53:10.385Z,3.38
2023-05-06T00:55:38.902Z,3.50
2023-05-06T00:58:08.457Z,3.55
2023-05-06T01:00:36.186Z,3.63
2023-05-06T01:03:04.076Z,3.33
2023-05-06T01:05:36.831Z,3.53
2023-05-06T01:08:19.053Z,3.67
2023-05-06T01:10:53.410Z,3.25
2023-05-06T01:13:29.355Z,3.58
2023-05-06T01:16:00.220Z,3.45
2023-05-06T01:18:31.462Z,3.53
2023-05-06T01:21:01.796Z,3.05
2023-05-06T01:23:30.867Z,3.67
2023-05-06T01:25:58.443Z,3.22
2023-05-06T01:28:26.003Z,3.65
2023-05-06T01:31:00.237Z,4.18
2023-05-06T01:33:36.151Z,4.10
2023-05-06T01:36:13.867Z,3.83
2023-05-06T01:38:50.189Z,4.13
2023-05-06T01:41:19.508Z,3.65
2023-05-06T01:43:49.079Z,4.25
2023-05-06T01:46:20.361Z,4.57
2023-05-06T01:48:51.781Z,4.07
2023-05-06T01:51:19.412Z,4.30
2023-05-06T01:53:48.979Z,4.30
2023-05-06T01:56:18.466Z,4.28
2023-05-06T01:58:46.061Z,4.47
2023-05-06T02:01:13.710Z,4.07
2023-05-06T02:03:41.472Z,3.83
2023-05-06T02:06:09.371Z,4.38
2023-05-06T02:08:40.698Z,4.82
2023-05-06T02:11:11.882Z,3.88
2023-05-06T02:13:39.843Z,4.65
2023-05-06T02:16:09.791Z,4.07
2023-05-06T02:18:38.281Z,4.75
2023-05-06T02:21:05.887Z,4.68
2023-05-06T02:23:33.535Z,4.55
2023-05-06T02:26:01.376Z,4.22
2023-05-06T02:28:30.294Z,4.10
2023-05-06T02:30:58.446Z,4.57
2023-05-06T02:33:26.420Z,4.70
2023-05-06T02:35:54.086Z,4.60
2023-05-06T02:38:22.550Z,4.55
2023-05-06T02:40:50.196Z,4.60
2023-05-06T02:43:17.762Z,4.55
2023-05-06T02:45:46.708Z,4.78
2023-05-06T02:48:14.333Z,5.53
2023-05-06T02:50:42.172Z,5.10
2023-05-06T02:53:10.470Z,4.60
2023-05-06T02:55:38.106Z,4.78
2023-05-06T02:58:06.041Z,4.30
2023-05-06T03:00:33.699Z,4.82
2023-05-06T03:03:02.718Z,4.95
2023-05-06T03:05:30.342Z,5.28
2023-05-06T03:07:57.982Z,4.88
2023-05-06T03:10:25.898Z,4.47
2023-05-06T03:12:54.241Z,5.43
2023-05-06T03:15:21.815Z,4.95
2023-05-06T03:17:49.899Z,5.13
2023-05-06T03:20:19.609Z,4.82
2023-05-06T03:22:51.986Z,4.82
2023-05-06T03:25:21.119Z,4.85
2023-05-06T03:27:48.720Z,4.47
2023-05-06T03:30:20.434Z,4.70
2023-05-06T03:32:50.034Z,4.93
2023-05-06T03:35:25.857Z,4.85
2023-05-06T03:37:57.396Z,4.82
2023-05-06T03:40:28.330Z,4.32
2023-05-06T03:42:56.595Z,3.95
2023-05-06T03:45:24.977Z,5.15
2023-05-06T03:47:52.936Z,4.57
2023-05-06T03:50:22.761Z,4.97
2023-05-06T03:52:53.584Z,5.03
2023-05-06T03:55:23.428Z,4.80
2023-05-06T03:57:51.116Z,4.55
2023-05-06T04:00:24.325Z,4.75
2023-05-06T04:02:54.785Z,4.53
2023-05-06T04:05:29.314Z,4.82
2023-05-06T04:07:59.635Z,4.65
2023-05-06T04:10:27.246Z,5.00
2023-05-06T04:13:00.725Z,5.05
2023-05-06T04:15:35.255Z,4.57
2023-05-06T04:18:06.241Z,4.65
2023-05-06T04:20:34.877Z,5.93
2023-05-06T04:23:05.373Z,6.25
2023-05-06T04:25:35.785Z,5.43
2023-05-06T04:28:03.541Z,5.18
2023-05-06T04:30:31.267Z,4.85
2023-05-06T04:32:58.964Z,5.13
2023-05-06T04:35:27.055Z,5.63
2023-05-06T04:37:57.849Z,4.60
2023-05-06T04:40:31.300Z,5.10
2023-05-06T04:42:58.874Z,4.35
2023-05-06T04:45:29.694Z,5.53
2023-05-06T04:47:57.441Z,4.70
2023-05-06T04:50:26.167Z,5.07
2023-05-06T04:52:54.646Z,4.88
2023-05-06T04:55:22.422Z,5.25
2023-05-06T04:57:54.591Z,5.00
2023-05-06T05:00:22.584Z,4.85
2023-05-06T05:02:50.497Z,5.22
2023-05-06T05:05:19.173Z,5.13
2023-05-06T05:07:50.198Z,5.22
2023-05-06T05:10:18.661Z,5.05
2023-05-06T05:12:47.242Z,5.00
2023-05-06T05:15:16.603Z,5.05
2023-05-06T05:17:44.464Z,5.20
2023-05-06T05:20:12.626Z,5.47
2023-05-06T05:22:40.483Z,5.43
2023-05-06T05:25:08.975Z,5.05
2023-05-06T05:27:37.458Z,5.25
2023-05-06T05:30:05.921Z,5.05
2023-05-06T05:32:39.033Z,5.32
2023-05-06T05:35:10.323Z,5.10
2023-05-06T05:37:39.131Z,4.93
2023-05-06T05:40:08.536Z,6.47
2023-05-06T05:42:38.774Z,5.22
2023-05-06T05:45:12.352Z,6.00
2023-05-06T05:47:41.978Z,5.20
2023-05-06T05:50:10.649Z,5.70
2023-05-06T05:52:38.804Z,5.55
2023-05-06T05:55:07.652Z,5.57
2023-05-06T05:57:35.889Z,5.40
2023-05-06T06:00:03.847Z,5.65
2023-05-06T06:02:34.584Z,5.28
2023-05-06T06:05:04.404Z,5.60
2023-05-06T06:07:32.106Z,5.38
2023-05-06T06:09:59.689Z,6.00
2023-05-06T06:12:27.336Z,5.30
2023-05-06T06:14:55.152Z,5.95
2023-05-06T06:17:24.977Z,6.20
2023-05-06T06:19:57.097Z,6.50
2023-05-06T06:22:26.377Z,6.38
2023-05-06T06:24:55.469Z,6.60
2023-05-06T06:27:23.355Z,5.78
2023-05-06T06:29:51.626Z,5.82
2023-05-06T06:32:19.614Z,5.55
2023-05-06T06:34:47.482Z,5.97
2023-05-06T06:37:15.069Z,5.80
2023-05-06T06:39:43.863Z,6.82
2023-05-06T06:42:11.393Z,6.25
2023-05-06T06:44:48.769Z,5.25
2023-05-06T06:47:16.324Z,6.22
2023-05-06T06:49:44.123Z,6.50
2023-05-06T06:52:11.918Z,6.07
2023-05-06T06:54:39.715Z,6.72
2023-05-06T06:57:08.601Z,5.88
2023-05-06T06:59:36.497Z,5.65
2023-05-06T07:02:04.580Z,5.72
2023-05-06T07:04:32.286Z,6.03
2023-05-06T07:07:00.116Z,6.45
2023-05-06T07:09:27.648Z,6.78
2023-05-06T07:11:55.314Z,6.07
2023-05-06T07:14:25.704Z,6.22
2023-05-06T07:16:53.317Z,6.55
2023-05-06T07:19:20.903Z,6.05
2023-05-06T07:21:49.272Z,6.50
2023-05-06T07:24:16.971Z,6.60
2023-05-06T07:26:45.012Z,6.57
2023-05-06T07:29:12.860Z,6.65
2023-05-06T07:31:42.034Z,6.50
2023-05-06T07:34:09.571Z,6.95
2023-05-06T07:36:40.525Z,6.20
2023-05-06T07:39:08.566Z,7.55
2023-05-06T07:41:36.159Z,6.25
2023-05-06T07:44:03.941Z,6.55
2023-05-06T07:46:31.639Z,5.95
2023-05-06T07:49:00.674Z,6.22
2023-05-06T07:51:28.345Z,6.85
2023-05-06T07:53:56.001Z,6.25
2023-05-06T07:56:23.578Z,6.88
2023-05-06T07:58:51.484Z,6.25
2023-05-06T08:01:19.146Z,6.78
2023-05-06T08:03:46.896Z,6.85
2023-05-06T08:06:15.848Z,7.13
2023-05-06T08:08:43.475Z,6.53
2023-05-06T08:11:11.216Z,6.22
2023-05-06T08:13:38.833Z,6.22
2023-05-06T08:16:07.779Z,6.78
2023-05-06T08:18:35.591Z,6.68
2023-05-06T08:21:03.138Z,6.30
2023-05-06T08:23:32.564Z,8.25
2023-05-06T08:26:00.289Z,6.85
2023-05-06T08:28:29.208Z,7.18
2023-05-06T08:30:56.873Z,8.88
2023-05-06T08:33:24.650Z,8.80
2023-05-06T08:35:53.276Z,7.80
2023-05-06T08:38:20.833Z,6.93
2023-05-06T08:40:50.284Z,7.20
2023-05-06T08:43:21.448Z,7.40
2023-05-06T08:45:50.333Z,7.32
2023-05-06T08:48:18.326Z,8.02
2023-05-06T08:50:49.012Z,7.72
2023-05-06T08:53:17.331Z,7.80
2023-05-06T08:55:45.475Z,7.50
2023-05-06T08:58:15.635Z,7.50
2023-05-06T09:00:44.117Z,7.68
2023-05-06T09:03:11.892Z,7.97
2023-05-06T09:05:39.632Z,8.85
2023-05-06T09:08:07.380Z,8.82
2023-05-06T09:10:46.065Z,7.60
2023-05-06T09:13:16.701Z,6.75
2023-05-06T09:15:47.225Z,7.03
2023-05-06T09:18:15.511Z,8.30
2023-05-06T09:20:45.077Z,6.68
2023-05-06T09:23:15.001Z,7.32
2023-05-06T09:25:43.663Z,6.82
2023-05-06T09:28:12.998Z,6.15
2023-05-06T09:30:43.083Z,6.72
2023-05-06T09:33:11.973Z,6.47
2023-05-06T09:35:41.265Z,8.18
2023-05-06T09:38:09.904Z,7.00
2023-05-06T09:40:38.164Z,6.45
2023-05-06T09:43:06.179Z,7.30
2023-05-06T09:45:34.189Z,7.18
2023-05-06T09:48:03.264Z,7.35
2023-05-06T09:50:31.022Z,7.75
2023-05-06T09:53:01.382Z,8.00
2023-05-06T09:55:29.383Z,7.00
2023-05-06T09:57:58.624Z,7.30
2023-05-06T10:00:29.041Z,7.47
2023-05-06T10:02:57.945Z,6.80
2023-05-06T10:05:29.869Z,7.40
2023-05-06T10:07:58.232Z,7.10
2023-05-06T10:10:28.147Z,7.75
2023-05-06T10:12:56.389Z,7.43
2023-05-06T10:15:26.579Z,7.32
2023-05-06T10:17:54.922Z,7.25
2023-05-06T10:20:25.250Z,7.00
2023-05-06T10:23:04.427Z,7.28
2023-05-06T10:25:40.192Z,8.00
2023-05-06T10:28:11.698Z,7.50
2023-05-06T10:30:48.514Z,7.57
2023-05-06T10:33:16.790Z,8.18
2023-05-06T10:35:50.805Z,7.68
2023-05-06T10:38:24.587Z,8.15
2023-05-06T10:40:53.402Z,7.75
2023-05-06T10:43:23.178Z,8.18
2023-05-06T10:46:05.402Z,8.93
2023-05-06T10:48:33.869Z,8.50
2023-05-06T10:51:25.879Z,7.68
2023-05-06T10:54:02.953Z,7.70
2023-05-06T10:56:32.329Z,6.97
2023-05-06T10:59:04.165Z,7.50
2023-05-06T11:01:31.720Z,7.00
2023-05-06T11:04:02.918Z,7.03
2023-05-06T11:06:42.072Z,7.32
2023-05-06T11:09:18.739Z,7.50
2023-05-06T11:11:51.126Z,7.00
2023-05-06T11:14:32.402Z,8.30
2023-05-06T11:17:01.561Z,6.55
2023-05-06T11:19:31.208Z,7.65
2023-05-06T11:22:00.765Z,7.13
2023-05-06T11:24:30.986Z,7.38
2023-05-06T11:27:00.435Z,7.72
2023-05-06T11:29:28.090Z,7.90
2023-05-06T11:31:55.703Z,7.90
2023-05-06T11:34:26.014Z,8.30
2023-05-06T11:36:58.399Z,8.68
2023-05-06T11:39:30.145Z,7.60
2023-05-06T11:42:02.311Z,7.32
2023-05-06T11:44:32.326Z,8.07
2023-05-06T11:47:02.015Z,7.65
2023-05-06T11:49:29.666Z,8.25
2023-05-06T11:51:58.136Z,7.82
2023-05-06T11:54:27.833Z,6.85
2023-05-06T11:56:57.420Z,7.38
2023-05-06T11:59:31.770Z,8.43
2023-05-06T12:02:01.068Z,8.57
2023-05-06T12:04:29.386Z,7.50
2023-05-06T12:06:57.345Z,7.70
2023-05-06T12:09:25.883Z,7.53
2023-05-06T12:11:54.905Z,8.32
2023-05-06T12:14:22.883Z,8.23
2023-05-06T12:16:53.045Z,7.38
2023-05-06T12:19:22.564Z,7.20
2023-05-06T12:21:50.396Z,7.22
2023-05-06T12:24:28.034Z,7.50
2023-05-06T12:26:56.061Z,7.82
2023-05-06T12:29:23.647Z,7.53
2023-05-06T12:32:08.866Z,8.05
2023-05-06T12:34:40.731Z,7.22
2023-05-06T12:37:09.470Z,7.80
2023-05-06T12:39:38.282Z,7.85
2023-05-06T12:42:06.768Z,9.38
2023-05-06T12:44:36.438Z,7.68
2023-05-06T12:47:08.328Z,8.65
2023-05-06T12:49:46.989Z,9.40
2023-05-06T12:52:15.096Z,7.68
2023-05-06T12:54:42.707Z,7.80
2023-05-06T12:57:10.421Z,8.75
2023-05-06T12:59:38.337Z,7.50
2023-05-06T13:02:07.977Z,7.82
2023-05-06T13:04:35.553Z,6.95
2023-05-06T13:07:03.135Z,8.63
2023-05-06T13:09:30.798Z,8.32
2023-05-06T13:11:59.815Z,7.57
2023-05-06T13:14:27.516Z,7.68
2023-05-06T13:16:55.181Z,7.40
2023-05-06T13:19:32.376Z,7.28
2023-05-06T13:22:01.538Z,8.20
2023-05-06T13:24:29.456Z,8.00
2023-05-06T13:26:59.309Z,7.57
2023-05-06T13:29:27.203Z,7.78
2023-05-06T13:31:55.298Z,8.25
2023-05-06T13:34:24.406Z,7.50
2023-05-06T13:36:54.363Z,6.88
2023-05-06T13:39:22.438Z,7.60
2023-05-06T13:41:50.860Z,7.07
2023-05-06T13:44:18.707Z,7.13
2023-05-06T13:46:46.768Z,7.00
2023-05-06T13:49:15.000Z,7.63
2023-05-06T13:51:43.927Z,7.45
2023-05-06T13:54:11.843Z,7.70
2023-05-06T13:56:39.515Z,7.38
2023-05-06T13:59:08.056Z,7.78
2023-05-06T14:01:36.207Z,7.25
2023-05-06T14:04:03.867Z,8.38
2023-05-06T14:06:31.464Z,8.10
2023-05-06T14:09:00.354Z,7.40
2023-05-06T14:11:27.958Z,7.43
2023-05-06T14:13:56.700Z,6.97
2023-05-06T14:16:24.856Z,6.93
2023-05-06T14:18:52.600Z,7.50
2023-05-06T14:21:20.299Z,8.40
2023-05-06T14:23:47.935Z,7.45
2023-05-06T14:26:16.811Z,7.90
2023-05-06T14:28:47.989Z,8.32
2023-05-06T14:31:15.689Z,7.90
2023-05-06T14:33:43.262Z,8.45
2023-05-06T14:36:10.916Z,8.32
2023-05-06T14:38:38.563Z,9.15
2023-05-06T14:41:06.332Z,8.38
2023-05-06T14:43:35.365Z,8.88
2023-05-06T14:46:02.952Z,8.20
2023-05-06T14:48:31.943Z,9.20
2023-05-06T14:51:00.434Z,8.38
2023-05-06T14:53:30.129Z,7.63
2023-05-06T14:55:57.712Z,8.18
2023-05-06T14:58:25.343Z,8.02
2023-05-06T15:00:54.396Z,9.20
2023-05-06T15:03:21.956Z,8.23
2023-05-06T15:08:29.233Z,7.97
2023-05-06T15:10:58.662Z,7.57
2023-05-06T15:13:26.285Z,7.97
2023-05-06T15:15:53.947Z,8.30
2023-05-06T15:18:21.659Z,7.72
2023-05-06T15:20:49.325Z,7.70
2023-05-06T15:23:17.482Z,8.18
2023-05-06T15:25:46.817Z,8.23
2023-05-06T15:28:14.480Z,8.50
2023-05-06T15:30:42.438Z,7.88
2023-05-06T15:33:10.167Z,7.55
2023-05-06T15:35:37.858Z,6.85
2023-05-06T15:38:05.677Z,8.00
2023-05-06T15:40:33.340Z,7.13
2023-05-06T15:43:02.485Z,7.82
2023-05-06T15:45:30.139Z,8.38
2023-05-06T15:47:57.852Z,8.85
2023-05-06T15:50:33.314Z,8.18
2023-05-06T15:53:02.355Z,8.80
2023-05-06T15:55:35.297Z,8.27
2023-05-06T15:58:15.392Z,8.73
2023-05-06T16:00:43.148Z,8.93
2023-05-06T16:03:12.189Z,9.05
2023-05-06T16:05:40.919Z,9.00
2023-05-06T16:08:08.556Z,9.80
2023-05-06T16:10:36.539Z,9.05
2023-05-06T16:13:04.299Z,8.48
2023-05-06T16:15:33.318Z,9.50
2023-05-06T16:18:01.152Z,10.10
2023-05-06T16:20:38.201Z,10.18
2023-05-06T16:23:06.224Z,10.05
2023-05-06T16:25:34.448Z,10.27
2023-05-06T16:28:01.980Z,9.93
2023-05-06T16:30:29.616Z,10.90
2023-05-06T16:32:58.874Z,10.30
2023-05-06T16:35:26.742Z,10.50
2023-05-06T16:37:54.443Z,11.55
2023-05-06T16:40:22.150Z,11.82
2023-05-06T16:42:50.249Z,11.32
2023-05-06T16:45:18.033Z,13.15
2023-05-06T16:47:46.069Z,11.25
2023-05-06T16:50:15.401Z,11.65
2023-05-06T16:52:43.066Z,10.35
2023-05-06T16:55:10.772Z,11.80
2023-05-06T16:57:38.480Z,11.00
2023-05-06T17:00:11.847Z,10.32
2023-05-06T17:02:40.945Z,10.98
2023-05-06T17:05:09.033Z,10.93
2023-05-06T17:07:37.968Z,10.70
2023-05-06T17:10:06.822Z,10.85
2023-05-06T17:12:34.532Z,10.02
2023-05-06T17:15:02.342Z,10.70
2023-05-06T17:17:30.688Z,11.48
2023-05-06T17:19:59.193Z,10.88
2023-05-06T17:22:27.065Z,11.82
2023-05-06T17:24:55.969Z,11.88
2023-05-06T17:27:23.549Z,11.23
2023-05-06T17:29:51.147Z,11.85
2023-05-06T17:32:19.747Z,11.70
2023-05-06T17:34:47.637Z,11.98
2023-05-06T17:37:15.324Z,11.90
2023-05-06T17:39:42.976Z,11.73
2023-05-06T17:42:12.000Z,11.30
2023-05-06T17:44:42.470Z,11.40
2023-05-06T17:47:10.151Z,12.30
2023-05-06T17:49:37.824Z,11.52
2023-05-06T17:52:05.680Z,11.73
2023-05-06T17:54:34.715Z,13.85
2023-05-06T17:57:03.528Z,13.75
2023-05-06T17:59:32.553Z,12.70
2023-05-06T18:02:00.797Z,11.38
2023-05-06T18:04:28.428Z,12.13
2023-05-06T18:06:57.040Z,12.40
2023-05-06T18:09:24.632Z,13.40
2023-05-06T18:11:52.320Z,14.75
2023-05-06T18:14:19.995Z,11.07
2023-05-06T18:16:48.968Z,12.77
2023-05-06T18:19:16.650Z,13.00
2023-05-06T18:21:44.332Z,11.85
2023-05-06T18:24:16.428Z,12.07
2023-05-06T18:26:45.711Z,12.35
2023-05-06T18:29:14.023Z,12.38
2023-05-06T18:31:41.792Z,13.05
2023-05-06T18:34:10.798Z,11.98
2023-05-06T18:36:38.716Z,11.07
2023-05-06T18:39:06.926Z,13.05
2023-05-06T18:41:34.578Z,11.98
2023-05-06T18:44:03.361Z,11.90
2023-05-06T18:46:30.971Z,12.40
2023-05-06T18:48:59.084Z,12.93
2023-05-06T18:51:28.515Z,11.68
2023-05-06T18:53:56.172Z,11.20
2023-05-06T18:56:23.825Z,11.35
2023-05-06T18:58:51.439Z,12.23
2023-05-06T19:01:19.156Z,12.75
2023-05-06T19:03:47.022Z,11.65
2023-05-06T19:06:14.822Z,12.20
2023-05-06T19:08:44.026Z,11.68
2023-05-06T19:11:15.823Z,13.27
2023-05-06T19:13:44.813Z,11.70
2023-05-06T19:16:12.592Z,12.88
2023-05-06T19:18:40.264Z,11.30
2023-05-06T19:21:10.014Z,12.27
2023-05-06T19:23:37.820Z,11.20
2023-05-06T19:26:07.329Z,10.95
2023-05-06T19:28:35.147Z,11.10
2023-05-06T19:31:07.502Z,10.75
2023-05-06T19:33:35.532Z,10.00
2023-05-06T19:36:03.135Z,10.85
2023-05-06T19:38:30.918Z,11.23
2023-05-06T19:40:58.602Z,10.73
2023-05-06T19:43:27.713Z,10.57
2023-05-06T19:45:55.973Z,10.82
2023-05-06T19:48:24.438Z,11.18
2023-05-06T19:50:53.814Z,11.38
2023-05-06T19:53:22.695Z,11.85
2023-05-06T19:55:50.772Z,10.90
2023-05-06T19:58:19.291Z,10.95
2023-05-06T20:00:48.313Z,11.45
2023-05-06T20:03:16.057Z,11.38
2023-05-06T20:05:43.671Z,11.18
2023-05-06T20:08:12.193Z,11.07
2023-05-06T20:10:39.925Z,11.13
2023-05-06T20:13:07.827Z,11.90
2023-05-06T20:15:35.815Z,11.90
2023-05-06T20:18:04.952Z,12.52
2023-05-06T20:20:36.705Z,11.93
2023-05-06T20:23:04.608Z,12.57
2023-05-06T20:25:34.168Z,11.40
2023-05-06T20:28:03.419Z,12.00
2023-05-06T20:30:31.413Z,13.05
2023-05-06T20:32:59.143Z,12.15
2023-05-06T20:35:28.261Z,12.30
2023-05-06T20:37:55.992Z,13.30
2023-05-06T20:40:23.670Z,11.73
2023-05-06T20:42:51.283Z,12.30
2023-05-06T20:45:18.872Z,12.77
2023-05-06T20:47:46.655Z,12.32
2023-05-06T20:50:16.909Z,12.55
2023-05-06T20:52:47.491Z,12.10
2023-05-06T20:55:15.729Z,11.85
2023-05-06T20:57:43.746Z,12.30
2023-05-06T21:00:12.306Z,11.93
2023-05-06T21:02:41.798Z,10.88
2023-05-06T21:05:10.593Z,11.43
2023-05-06T21:07:38.642Z,11.10
2023-05-06T21:10:08.452Z,12.15
2023-05-06T21:12:36.234Z,11.25
2023-05-06T21:15:04.298Z,10.50
2023-05-06T21:17:32.029Z,10.73
2023-05-06T21:19:59.906Z,10.93
2023-05-06T21:22:27.480Z,10.20
2023-05-06T21:24:55.869Z,10.80
2023-05-06T21:27:24.898Z,11.57
2023-05-06T21:29:52.523Z,11.07
2023-05-06T21:32:20.102Z,10.95
2023-05-06T21:34:47.751Z,9.95
2023-05-06T21:37:15.382Z,10.13
2023-05-06T21:39:43.069Z,10.48
2023-05-06T21:42:10.792Z,10.50
2023-05-06T21:44:39.703Z,9.50
2023-05-06T21:47:07.478Z,9.82
2023-05-06T21:49:35.037Z,10.82
2023-05-06T21:52:03.315Z,10.73
2023-05-06T21:54:31.468Z,9.68
2023-05-06T21:56:59.129Z,10.52
2023-05-06T21:59:26.696Z,10.52
2023-05-06T22:01:55.813Z,11.60
2023-05-06T22:04:23.488Z,10.23
2023-05-06T22:06:51.219Z,11.25
2023-05-06T22:09:18.814Z,10.45
2023-05-06T22:11:46.662Z,10.38
2023-05-06T22:14:15.437Z,9.35
2023-05-06T22:16:45.690Z,10.50
2023-05-06T22:19:15.075Z,9.88
2023-05-06T22:21:42.688Z,9.40
2023-05-06T22:24:10.775Z,9.75
2023-05-06T22:26:38.527Z,10.20
2023-05-06T22:29:06.228Z,9.63
2023-05-06T22:31:33.853Z,10.93
2023-05-06T22:34:04.537Z,9.50
2023-05-06T22:36:33.919Z,8.98
2023-05-06T22:39:02.180Z,9.18
2023-05-06T22:41:30.641Z,9.65
2023-05-06T22:43:58.254Z,9.43
2023-05-06T22:46:25.854Z,9.60
2023-05-06T22:48:53.472Z,9.30
2023-05-06T22:51:21.093Z,9.75
2023-05-06T22:53:50.026Z,10.30
2023-05-06T22:56:19.017Z,8.98
2023-05-06T22:58:46.741Z,8.07
2023-05-06T23:01:14.442Z,8.05
2023-05-06T23:03:42.039Z,7.80
2023-05-06T23:06:09.657Z,7.43
2023-05-06T23:08:37.223Z,7.97
2023-05-06T23:11:06.437Z,8.10
2023-05-06T23:13:36.044Z,8.00
2023-05-06T23:16:03.773Z,8.05
2023-05-06T23:18:31.321Z,7.75
2023-05-06T23:20:58.863Z,8.15
2023-05-06T23:23:26.370Z,8.68
2023-05-06T23:25:54.236Z,8.88
2023-05-06T23:28:23.178Z,8.63
2023-05-06T23:30:51.113Z,9.95
2023-05-06T23:33:18.629Z,9.10
2023-05-06T23:35:46.247Z,8.05
2023-05-06T23:38:13.874Z,8.25
2023-05-06T23:40:41.533Z,8.85
2023-05-06T23:43:11.247Z,9.32
2023-05-06T23:45:40.207Z,9.32
2023-05-06T23:48:07.978Z,8.75
2023-05-06T23:50:35.564Z,10.10
2023-05-06T23:53:04.015Z,9.85
2023-05-06T23:55:31.990Z,10.10
2023-05-06T23:57:59.597Z,9.30
